createdAt,value
2018-04-14T00:01:40.141Z,54.13
2018-04-14T00:04:08.285Z,53.23
2018-04-14T00:06:36.425Z,61.53
2018-04-14T00:09:04.549Z,60.13
2018-04-14T00:11:32.785Z,59.63
2018-04-14T00:14:00.925Z,58.07
2018-04-14T00:16:29.069Z,59.33
2018-04-14T00:18:57.216Z,58.10
2018-04-14T00:21:25.362Z,61.83
2018-04-14T00:23:53.494Z,62.30
2018-04-14T00:26:21.848Z,58.67
2018-04-14T00:28:49.983Z,77.13
2018-04-14T00:31:18.118Z,52.50
2018-04-14T00:33:46.272Z,57.50
2018-04-14T00:36:14.444Z,58.63
2018-04-14T00:38:42.606Z,61.60
2018-04-14T00:41:10.752Z,61.93
2018-04-14T00:43:38.896Z,63.00
2018-04-14T00:46:07.007Z,60.10
2018-04-14T00:48:35.130Z,62.23
2018-04-14T00:51:03.274Z,66.17
2018-04-14T00:53:43.280Z,64.87
2018-04-14T00:56:11.397Z,64.70
2018-04-14T00:58:39.552Z,64.93
2018-04-14T01:01:07.701Z,62.20
2018-04-14T01:03:35.854Z,63.87
2018-04-14T01:06:03.996Z,68.37
2018-04-14T01:08:32.381Z,70.60
2018-04-14T01:11:00.525Z,67.13
2018-04-14T01:13:28.639Z,66.67
2018-04-14T01:15:56.817Z,68.57
2018-04-14T01:18:24.931Z,69.67
2018-04-14T01:20:53.056Z,69.30
2018-04-14T01:23:21.218Z,72.23
2018-04-14T01:25:49.341Z,71.30
2018-04-14T01:28:17.463Z,74.63
2018-04-14T01:30:45.732Z,70.27
2018-04-14T01:33:13.847Z,74.17
2018-04-14T01:35:41.981Z,77.20
2018-04-14T01:38:10.146Z,69.33
2018-04-14T01:40:38.276Z,75.93
2018-04-14T01:43:06.437Z,70.10
2018-04-14T01:45:34.570Z,72.03
2018-04-14T01:48:02.803Z,75.97
2018-04-14T01:50:30.929Z,78.97
2018-04-14T01:52:59.081Z,78.53
2018-04-14T01:55:27.197Z,81.20
2018-04-14T01:57:55.338Z,78.27
2018-04-14T02:00:23.499Z,82.60
2018-04-14T02:02:51.622Z,79.43
2018-04-14T02:05:19.782Z,77.27
2018-04-14T02:07:47.908Z,86.87
2018-04-14T02:10:16.052Z,89.87
2018-04-14T02:12:44.178Z,87.83
2018-04-14T02:15:12.325Z,87.87
2018-04-14T02:17:40.614Z,86.63
2018-04-14T02:20:08.724Z,90.80
2018-04-14T02:22:36.888Z,91.57
2018-04-14T02:25:04.998Z,88.40
2018-04-14T02:27:33.138Z,82.03
2018-04-14T02:30:01.283Z,75.73
2018-04-14T02:32:29.424Z,79.47
2018-04-14T02:34:57.542Z,80.47
2018-04-14T02:37:25.682Z,82.77
2018-04-14T02:39:53.803Z,87.57
2018-04-14T02:42:25.696Z,82.43
2018-04-14T02:44:54.048Z,78.17
2018-04-14T02:47:22.223Z,83.17
2018-04-14T02:49:50.337Z,81.87
2018-04-14T02:52:18.506Z,88.00
2018-04-14T02:54:46.633Z,87.53
2018-04-14T02:57:14.782Z,93.63
2018-04-14T02:59:42.930Z,86.60
2018-04-14T03:02:11.069Z,94.80
2018-04-14T03:04:39.202Z,86.97
2018-04-14T03:07:07.338Z,89.97
2018-04-14T03:09:35.458Z,93.37
2018-04-14T03:12:03.579Z,97.40
2018-04-14T03:14:31.729Z,91.10
2018-04-14T03:16:59.867Z,93.13
2018-04-14T03:19:28.001Z,94.33
2018-04-14T03:21:56.318Z,91.97
2018-04-14T03:24:24.439Z,96.93
2018-04-14T03:26:52.598Z,100.63
2018-04-14T03:29:20.751Z,92.97
2018-04-14T03:31:48.891Z,91.23
2018-04-14T03:34:17.031Z,96.57
2018-04-14T03:36:45.199Z,95.23
2018-04-14T03:39:13.306Z,95.30
2018-04-14T03:41:41.458Z,99.13
2018-04-14T03:44:09.594Z,98.07
2018-04-14T03:46:37.708Z,98.20
2018-04-14T03:49:05.859Z,92.07
2018-04-14T03:51:34.158Z,95.03
2018-04-14T03:54:02.276Z,96.97
2018-04-14T03:56:30.420Z,99.73
2018-04-14T03:58:58.583Z,102.63
2018-04-14T04:01:26.718Z,95.17
2018-04-14T04:03:54.860Z,97.97
2018-04-14T04:06:23.009Z,102.87
2018-04-14T04:08:51.158Z,100.03
2018-04-14T04:11:19.300Z,108.03
2018-04-14T04:13:47.653Z,106.97
2018-04-14T04:16:16.897Z,103.07
2018-04-14T04:18:57.016Z,97.20
2018-04-14T04:21:36.767Z,106.20
2018-04-14T04:24:16.973Z,102.70
2018-04-14T04:26:45.146Z,106.50
2018-04-14T04:29:13.351Z,98.83
2018-04-14T04:31:41.701Z,108.60
2018-04-14T04:34:09.860Z,101.03
2018-04-14T04:36:37.992Z,101.93
2018-04-14T04:39:06.126Z,95.13
2018-04-14T04:41:34.263Z,99.23
2018-04-14T04:44:02.416Z,102.70
2018-04-14T04:46:30.574Z,103.37
2018-04-14T04:48:58.740Z,91.50
2018-04-14T04:51:26.850Z,105.13
2018-04-14T04:53:54.986Z,97.37
2018-04-14T04:56:23.110Z,99.17
2018-04-14T04:58:51.253Z,104.93
2018-04-14T05:01:19.407Z,97.93
2018-04-14T05:03:47.545Z,94.30
2018-04-14T05:06:15.677Z,99.13
2018-04-14T05:08:43.833Z,107.80
2018-04-14T05:11:11.965Z,98.37
2018-04-14T05:13:40.091Z,99.07
2018-04-14T05:16:08.250Z,94.67
2018-04-14T05:18:36.377Z,98.27
2018-04-14T05:21:04.492Z,95.80
2018-04-14T05:23:32.702Z,97.73
2018-04-14T05:26:00.852Z,94.77
2018-04-14T05:28:28.974Z,82.60
2018-04-14T05:30:57.141Z,69.90
2018-04-14T05:33:25.284Z,71.73
2018-04-14T05:35:53.411Z,66.43
2018-04-14T05:38:21.556Z,66.27
2018-04-14T05:40:49.690Z,67.20
2018-04-14T05:43:21.541Z,69.40
2018-04-14T05:45:49.704Z,67.63
2018-04-14T05:48:17.868Z,71.13
2018-04-14T05:50:45.981Z,72.90
2018-04-14T05:53:14.128Z,68.07
2018-04-14T05:55:42.258Z,72.47
2018-04-14T05:58:10.414Z,65.20
2018-04-14T06:00:38.570Z,64.07
2018-04-14T06:03:06.708Z,64.20
2018-04-14T06:05:34.855Z,65.67
2018-04-14T06:08:03.004Z,61.33
2018-04-14T06:10:31.131Z,56.33
2018-04-14T06:12:59.250Z,54.13
2018-04-14T06:15:27.396Z,56.17
2018-04-14T06:17:55.516Z,61.20
2018-04-14T06:20:23.653Z,58.87
2018-04-14T06:22:51.813Z,55.57
2018-04-14T06:25:19.958Z,55.70
2018-04-14T06:27:48.065Z,57.00
2018-04-14T06:30:16.202Z,58.07
2018-04-14T06:32:44.354Z,57.30
2018-04-14T06:35:12.532Z,52.00
2018-04-14T06:37:40.713Z,56.67
2018-04-14T06:40:08.865Z,49.20
2018-04-14T06:42:37.016Z,51.53
2018-04-14T06:45:05.155Z,49.90
2018-04-14T06:47:33.336Z,50.27
2018-04-14T06:50:01.721Z,51.83
2018-04-14T06:52:29.876Z,50.53
2018-04-14T06:54:58.015Z,56.67
2018-04-14T06:57:26.153Z,53.80
2018-04-14T06:59:54.448Z,51.27
2018-04-14T07:02:26.352Z,51.90
2018-04-14T07:04:54.487Z,51.33
2018-04-14T07:07:22.619Z,57.10
2018-04-14T07:09:50.776Z,55.33
2018-04-14T07:12:18.885Z,54.40
2018-04-14T07:14:47.041Z,57.63
2018-04-14T07:17:15.171Z,51.13
2018-04-14T07:19:43.298Z,51.33
2018-04-14T07:22:11.427Z,54.63
2018-04-14T07:24:39.647Z,56.30
2018-04-14T07:27:07.789Z,58.43
2018-04-14T07:29:35.923Z,53.77
2018-04-14T07:32:04.060Z,55.83
2018-04-14T07:34:32.195Z,59.80
2018-04-14T07:37:00.324Z,57.23
2018-04-14T07:39:28.451Z,56.87
2018-04-14T07:41:56.566Z,59.83
2018-04-14T07:44:24.711Z,57.57
2018-04-14T07:46:52.835Z,55.90
2018-04-14T07:49:20.973Z,55.17
2018-04-14T07:51:49.103Z,58.90
2018-04-14T07:54:17.251Z,58.73
2018-04-14T07:56:45.362Z,55.97
2018-04-14T07:59:13.524Z,57.73
2018-04-14T08:01:41.776Z,56.10
2018-04-14T08:04:09.994Z,55.27
2018-04-14T08:06:38.124Z,57.17
2018-04-14T08:09:10.088Z,60.50
2018-04-14T08:11:38.276Z,63.03
2018-04-14T08:14:09.833Z,58.97
2018-04-14T08:16:37.954Z,53.57
2018-04-14T08:19:06.091Z,54.57
2018-04-14T08:21:34.238Z,57.27
2018-04-14T08:24:02.370Z,64.80
2018-04-14T08:26:30.515Z,61.83
2018-04-14T08:28:58.669Z,56.03
2018-04-14T08:31:26.816Z,63.33
2018-04-14T08:33:54.959Z,54.80
2018-04-14T08:36:23.408Z,60.27
2018-04-14T08:38:52.467Z,64.00
2018-04-14T08:41:20.958Z,61.40
2018-04-14T08:43:49.100Z,60.07
2018-04-14T08:46:17.229Z,58.33
2018-04-14T08:48:45.388Z,56.37
2018-04-14T08:51:13.526Z,59.67
2018-04-14T08:53:41.659Z,59.27
2018-04-14T08:56:09.786Z,61.53
2018-04-14T08:58:37.943Z,64.93
2018-04-14T09:01:06.067Z,67.87
2018-04-14T09:03:34.216Z,70.27
2018-04-14T09:06:02.367Z,65.77
2018-04-14T09:08:30.499Z,66.27
2018-04-14T09:10:58.927Z,71.37
2018-04-14T09:13:27.068Z,70.23
2018-04-14T09:15:55.194Z,70.10
2018-04-14T09:18:23.330Z,69.80
2018-04-14T09:20:51.503Z,69.90
2018-04-14T09:23:19.638Z,67.93
2018-04-14T09:25:47.780Z,65.53
2018-04-14T09:28:15.921Z,69.40
2018-04-14T09:30:44.041Z,67.60
2018-04-14T09:33:12.193Z,65.47
2018-04-14T09:35:40.584Z,68.30
2018-04-14T09:38:10.631Z,68.23
2018-04-14T09:40:38.751Z,67.43
2018-04-14T09:43:06.932Z,65.53
2018-04-14T09:45:35.048Z,69.30
2018-04-14T09:48:03.180Z,70.47
2018-04-14T09:50:31.333Z,70.70
2018-04-14T09:52:59.478Z,75.30
2018-04-14T09:55:27.615Z,75.60
2018-04-14T09:57:55.776Z,73.60
2018-04-14T10:00:27.790Z,72.83
2018-04-14T10:03:00.819Z,73.90
2018-04-14T10:05:28.900Z,68.80
2018-04-14T10:07:57.909Z,71.90
2018-04-14T10:10:26.090Z,84.87
2018-04-14T10:12:54.214Z,82.20
2018-04-14T10:15:22.320Z,76.00
2018-04-14T10:17:50.516Z,75.77
2018-04-14T10:20:18.665Z,74.63
2018-04-14T10:22:46.794Z,73.07
2018-04-14T10:25:14.933Z,74.83
2018-04-14T10:27:43.066Z,66.30
2018-04-14T10:30:11.208Z,71.73
2018-04-14T10:32:39.349Z,71.63
2018-04-14T10:35:07.463Z,68.87
2018-04-14T10:37:35.625Z,78.13
2018-04-14T10:40:03.770Z,72.07
2018-04-14T10:42:31.914Z,72.57
2018-04-14T10:45:00.115Z,76.57
2018-04-14T10:47:28.246Z,70.17
2018-04-14T10:49:56.392Z,68.03
2018-04-14T10:52:24.511Z,74.03
2018-04-14T10:54:52.741Z,69.30
2018-04-14T10:57:20.884Z,70.10
2018-04-14T10:59:48.996Z,75.90
2018-04-14T11:02:17.139Z,72.50
2018-04-14T11:04:45.257Z,71.37
2018-04-14T11:07:13.387Z,70.97
2018-04-14T11:09:41.752Z,71.00
2018-04-14T11:12:09.901Z,80.73
2018-04-14T11:14:38.073Z,70.30
2018-04-14T11:17:06.357Z,72.97
2018-04-14T11:19:34.495Z,73.50
2018-04-14T11:22:02.638Z,70.60
2018-04-14T11:24:30.908Z,67.53
2018-04-14T11:26:59.055Z,72.47
2018-04-14T11:29:27.190Z,70.17
2018-04-14T11:31:55.350Z,71.37
2018-04-14T11:34:23.521Z,72.13
2018-04-14T11:36:51.646Z,74.57
2018-04-14T11:39:19.792Z,69.47
2018-04-14T11:41:47.942Z,69.70
2018-04-14T11:44:16.086Z,75.20
2018-04-14T11:46:44.246Z,62.80
2018-04-14T11:49:12.404Z,68.50
2018-04-14T11:51:40.511Z,61.83
2018-04-14T11:54:08.665Z,65.23
2018-04-14T11:56:36.821Z,59.43
2018-04-14T11:59:04.963Z,61.97
2018-04-14T12:01:33.117Z,63.00
2018-04-14T12:04:01.280Z,63.57
2018-04-14T12:06:29.428Z,63.10
2018-04-14T12:08:57.826Z,62.20
2018-04-14T12:11:26.048Z,59.30
2018-04-14T12:13:54.184Z,60.43
2018-04-14T12:16:22.360Z,65.60
2018-04-14T12:18:50.492Z,55.60
2018-04-14T12:21:18.637Z,58.63
2018-04-14T12:23:46.784Z,57.30
2018-04-14T12:26:14.914Z,58.80
2018-04-14T12:28:43.035Z,62.53
2018-04-14T12:31:11.198Z,61.33
2018-04-14T12:33:39.329Z,58.57
2018-04-14T12:36:07.473Z,54.20
2018-04-14T12:38:35.606Z,61.83
2018-04-14T12:41:03.764Z,59.93
2018-04-14T12:43:31.911Z,61.60
2018-04-14T12:46:00.050Z,59.60
2018-04-14T12:48:28.192Z,53.43
2018-04-14T12:50:56.327Z,58.53
2018-04-14T12:53:24.471Z,64.50
2018-04-14T12:55:52.611Z,57.27
2018-04-14T12:58:20.754Z,59.53
2018-04-14T13:00:49.101Z,61.10
2018-04-14T13:03:17.229Z,63.17
2018-04-14T13:05:45.363Z,64.67
2018-04-14T13:08:16.849Z,64.00
2018-04-14T13:10:45.014Z,59.57
2018-04-14T13:13:13.164Z,58.27
2018-04-14T13:15:41.271Z,65.90
2018-04-14T13:18:09.406Z,58.20
2018-04-14T13:20:37.528Z,57.67
2018-04-14T13:23:05.683Z,66.37
2018-04-14T13:25:33.844Z,63.17
2018-04-14T13:28:01.973Z,57.93
2018-04-14T13:30:30.111Z,65.80
2018-04-14T13:32:58.255Z,61.07
2018-04-14T13:35:26.382Z,59.33
2018-04-14T13:37:54.524Z,60.40
2018-04-14T13:40:22.671Z,58.93
2018-04-14T13:42:50.793Z,65.23
2018-04-14T13:45:18.939Z,61.50
2018-04-14T13:47:47.149Z,59.00
2018-04-14T13:50:15.280Z,60.27
2018-04-14T13:52:43.436Z,61.03
2018-04-14T13:55:11.599Z,58.90
2018-04-14T13:57:39.713Z,60.13
2018-04-14T14:00:07.989Z,58.40
2018-04-14T14:02:36.134Z,62.10
2018-04-14T14:05:04.260Z,64.53
2018-04-14T14:07:32.684Z,59.30
2018-04-14T14:10:00.824Z,60.27
2018-04-14T14:12:28.955Z,54.53
2018-04-14T14:15:02.397Z,51.33
2018-04-14T14:17:31.124Z,58.53
2018-04-14T14:19:59.360Z,56.80
2018-04-14T14:22:27.555Z,54.93
2018-04-14T14:24:55.767Z,48.90
2018-04-14T14:27:23.920Z,46.27
2018-04-14T14:29:52.041Z,50.23
2018-04-14T14:32:20.200Z,47.37
2018-04-14T14:34:48.325Z,48.10
2018-04-14T14:37:16.458Z,53.37
2018-04-14T14:39:44.588Z,54.30
2018-04-14T14:42:12.716Z,42.57
2018-04-14T14:44:40.853Z,40.97
2018-04-14T14:47:09.004Z,52.30
2018-04-14T14:49:37.139Z,55.50
2018-04-14T14:52:05.270Z,46.13
2018-04-14T14:54:33.394Z,49.67
2018-04-14T14:57:01.536Z,46.60
2018-04-14T14:59:32.837Z,45.63
2018-04-14T15:02:00.963Z,49.50
2018-04-14T15:04:29.127Z,53.67
2018-04-14T15:06:57.250Z,55.57
2018-04-14T15:09:25.384Z,52.00
2018-04-14T15:11:53.776Z,50.17
2018-04-14T15:14:21.914Z,52.33
2018-04-14T15:16:50.058Z,48.67
2018-04-14T15:19:18.205Z,49.43
2018-04-14T15:21:46.333Z,49.90
2018-04-14T15:24:14.477Z,52.33
2018-04-14T15:26:42.808Z,46.10
2018-04-14T15:29:10.930Z,53.83
2018-04-14T15:31:39.071Z,44.57
2018-04-14T15:34:07.217Z,49.27
2018-04-14T15:36:35.360Z,47.67
2018-04-14T15:39:03.485Z,47.57
2018-04-14T15:41:31.651Z,46.90
2018-04-14T15:43:59.783Z,49.37
2018-04-14T15:46:27.927Z,49.60
2018-04-14T15:48:56.080Z,48.63
2018-04-14T15:51:24.214Z,44.33
2018-04-14T15:53:52.375Z,47.63
2018-04-14T15:56:20.528Z,49.97
2018-04-14T15:58:48.683Z,48.53
2018-04-14T16:01:16.835Z,47.83
2018-04-14T16:03:45.056Z,48.37
2018-04-14T16:06:13.117Z,47.87
2018-04-14T16:08:41.244Z,45.63
2018-04-14T16:11:09.390Z,46.53
2018-04-14T16:13:37.510Z,45.53
2018-04-14T16:16:05.660Z,48.73
2018-04-14T16:18:33.793Z,53.17
2018-04-14T16:21:01.943Z,47.67
2018-04-14T16:23:30.116Z,48.47
2018-04-14T16:25:58.240Z,46.10
2018-04-14T16:28:26.404Z,42.53
2018-04-14T16:30:54.544Z,47.97
2018-04-14T16:33:22.681Z,46.30
2018-04-14T16:35:50.842Z,43.57
2018-04-14T16:38:18.992Z,46.17
2018-04-14T16:40:47.142Z,46.73
2018-04-14T16:43:15.254Z,44.73
2018-04-14T16:45:43.373Z,45.07
2018-04-14T16:48:11.539Z,46.83
2018-04-14T16:50:39.765Z,48.87
2018-04-14T16:53:07.907Z,38.93
2018-04-14T16:55:36.069Z,44.67
2018-04-14T16:58:04.275Z,49.90
2018-04-14T17:00:33.003Z,46.93
2018-04-14T17:03:01.699Z,45.93
2018-04-14T17:05:30.575Z,48.00
2018-04-14T17:07:59.827Z,44.00
2018-04-14T17:10:28.766Z,44.33
2018-04-14T17:12:56.999Z,45.63
2018-04-14T17:15:25.127Z,48.80
2018-04-14T17:17:53.341Z,44.10
2018-04-14T17:20:21.493Z,48.97
2018-04-14T17:22:49.615Z,46.17
2018-04-14T17:25:18.232Z,41.50
2018-04-14T17:27:46.380Z,49.63
2018-04-14T17:30:14.523Z,43.20
2018-04-14T17:32:42.676Z,45.57
2018-04-14T17:35:10.824Z,42.83
2018-04-14T17:37:38.962Z,44.10
2018-04-14T17:40:07.138Z,45.10
2018-04-14T17:42:35.265Z,44.00
2018-04-14T17:45:03.515Z,45.60
2018-04-14T17:47:31.680Z,47.27
2018-04-14T17:50:00.052Z,44.10
2018-04-14T17:52:28.186Z,43.63
2018-04-14T17:54:56.315Z,39.83
2018-04-14T17:57:24.426Z,44.27
2018-04-14T17:59:52.556Z,39.53
2018-04-14T18:02:20.707Z,42.07
2018-04-14T18:04:48.849Z,49.13
2018-04-14T18:07:17.254Z,48.90
2018-04-14T18:09:45.416Z,44.53
2018-04-14T18:12:13.585Z,42.50
2018-04-14T18:14:41.699Z,43.97
2018-04-14T18:17:09.860Z,39.67
2018-04-14T18:19:38.016Z,39.83
2018-04-14T18:22:06.146Z,44.40
2018-04-14T18:24:34.285Z,49.70
2018-04-14T18:27:02.419Z,45.67
2018-04-14T18:29:30.560Z,50.37
2018-04-14T18:31:58.712Z,46.60
2018-04-14T18:34:26.827Z,47.30
2018-04-14T18:36:54.935Z,48.43
2018-04-14T18:39:23.101Z,45.93
2018-04-14T18:41:51.242Z,45.60
2018-04-14T18:44:19.354Z,47.40
2018-04-14T18:46:47.487Z,46.57
2018-04-14T18:49:15.640Z,47.77
2018-04-14T18:51:43.775Z,43.23
2018-04-14T18:54:11.913Z,47.67
2018-04-14T18:56:40.066Z,48.30
2018-04-14T18:59:08.195Z,44.80
2018-04-14T19:01:36.354Z,47.87
2018-04-14T19:04:04.512Z,44.97
2018-04-14T19:06:32.658Z,47.93
2018-04-14T19:09:00.818Z,48.40
2018-04-14T19:11:28.971Z,44.63
2018-04-14T19:13:57.066Z,49.27
2018-04-14T19:16:25.209Z,50.37
2018-04-14T19:18:56.997Z,48.07
2018-04-14T19:21:28.847Z,51.70
2018-04-14T19:23:56.987Z,47.80
2018-04-14T19:26:25.121Z,48.40
2018-04-14T19:28:53.253Z,46.77
2018-04-14T19:31:21.419Z,54.03
2018-04-14T19:33:49.565Z,48.23
2018-04-14T19:36:17.686Z,50.87
2018-04-14T19:38:48.825Z,47.70
2018-04-14T19:41:16.953Z,59.53
2018-04-14T19:43:45.091Z,53.73
2018-04-14T19:46:13.223Z,53.07
2018-04-14T19:48:41.388Z,53.97
2018-04-14T19:51:09.815Z,53.77
2018-04-14T19:53:37.951Z,50.27
2018-04-14T19:56:06.086Z,52.93
2018-04-14T19:58:34.230Z,52.83
2018-04-14T20:01:02.348Z,54.53
2018-04-14T20:03:30.489Z,52.70
2018-04-14T20:05:58.623Z,56.40
2018-04-14T20:08:26.749Z,53.93
2018-04-14T20:10:55.333Z,61.17
2018-04-14T20:13:23.509Z,59.67
2018-04-14T20:15:51.616Z,56.23
2018-04-14T20:18:19.753Z,54.37
2018-04-14T20:20:47.947Z,56.87
2018-04-14T20:23:16.042Z,61.17
2018-04-14T20:25:44.244Z,61.03
2018-04-14T20:28:13.292Z,58.10
2018-04-14T20:30:41.431Z,61.93
2018-04-14T20:33:09.554Z,57.57
2018-04-14T20:35:37.706Z,55.87
2018-04-14T20:38:05.837Z,62.47
2018-04-14T20:40:33.955Z,54.83
2018-04-14T20:43:02.120Z,59.23
2018-04-14T20:45:30.248Z,58.03
2018-04-14T20:47:58.392Z,61.33
2018-04-14T20:50:26.533Z,64.23
2018-04-14T20:52:58.525Z,66.43
2018-04-14T20:55:26.765Z,59.57
2018-04-14T20:57:54.899Z,63.87
2018-04-14T21:00:23.020Z,62.50
2018-04-14T21:02:51.180Z,65.77
2018-04-14T21:05:19.324Z,65.80
2018-04-14T21:07:47.446Z,64.60
2018-04-14T21:10:15.559Z,63.97
2018-04-14T21:12:43.718Z,68.43
2018-04-14T21:15:11.895Z,68.40
2018-04-14T21:17:40.036Z,72.43
2018-04-14T21:20:08.155Z,67.00
2018-04-14T21:22:36.303Z,63.33
2018-04-14T21:25:04.428Z,69.43
2018-04-14T21:27:32.573Z,68.73
2018-04-14T21:30:00.718Z,67.53
2018-04-14T21:32:28.839Z,71.63
2018-04-14T21:34:56.970Z,75.47
2018-04-14T21:37:25.119Z,68.60
2018-04-14T21:39:53.236Z,70.63
2018-04-14T21:42:21.383Z,72.50
2018-04-14T21:44:49.505Z,68.93
2018-04-14T21:47:17.650Z,73.07
2018-04-14T21:49:49.403Z,69.07
2018-04-14T21:52:17.637Z,73.20
2018-04-14T21:54:45.797Z,79.00
2018-04-14T21:57:14.042Z,70.87
2018-04-14T21:59:42.226Z,73.80
2018-04-14T22:02:10.372Z,81.37
2018-04-14T22:04:38.575Z,76.43
2018-04-14T22:07:06.777Z,75.83
2018-04-14T22:09:34.888Z,76.67
2018-04-14T22:12:03.015Z,73.47
2018-04-14T22:14:33.102Z,74.50
2018-04-14T22:17:01.230Z,74.30
2018-04-14T22:19:29.366Z,71.27
2018-04-14T22:21:57.501Z,75.77
2018-04-14T22:24:25.630Z,73.47
2018-04-14T22:26:53.784Z,74.20
2018-04-14T22:29:23.903Z,77.33
2018-04-14T22:31:52.086Z,74.43
2018-04-14T22:34:20.236Z,72.47
2018-04-14T22:36:48.424Z,80.17
2018-04-14T22:39:16.607Z,77.40
2018-04-14T22:41:44.843Z,75.33
2018-04-14T22:44:12.997Z,83.77
2018-04-14T22:46:41.164Z,74.23
2018-04-14T22:49:09.354Z,76.40
2018-04-14T22:51:37.571Z,76.33
2018-04-14T22:54:05.739Z,78.20
2018-04-14T22:56:33.865Z,71.70
2018-04-14T22:59:02.011Z,75.90
2018-04-14T23:01:30.146Z,76.67
2018-04-14T23:03:58.281Z,78.50
2018-04-14T23:06:26.500Z,80.70
2018-04-14T23:08:54.621Z,76.80
2018-04-14T23:11:22.762Z,78.40
2018-04-14T23:13:50.907Z,77.63
2018-04-14T23:16:19.052Z,76.97
2018-04-14T23:18:47.276Z,78.40
2018-04-14T23:21:15.399Z,85.70
2018-04-14T23:23:43.528Z,88.13
2018-04-14T23:26:11.669Z,84.00
2018-04-14T23:28:39.794Z,84.50
2018-04-14T23:31:07.931Z,82.53
2018-04-14T23:33:36.075Z,78.23
2018-04-14T23:36:04.197Z,81.63
2018-04-14T23:38:32.312Z,83.23
2018-04-14T23:41:00.477Z,85.53
2018-04-14T23:43:28.602Z,85.50
2018-04-14T23:45:56.733Z,85.63
2018-04-14T23:48:24.855Z,85.37
2018-04-14T23:50:52.993Z,76.17
2018-04-14T23:53:24.988Z,76.33
2018-04-14T23:55:53.123Z,72.97
2018-04-14T23:58:21.256Z,68.13
